createdAt,value
2022-10-30T00:08:26.623Z,1003.62
2022-10-30T00:18:32.126Z,1003.38
2022-10-30T00:28:39.295Z,1003.30
2022-10-30T00:38:46.345Z,1003.30
2022-10-30T00:48:53.851Z,1003.30
2022-10-30T00:59:00.646Z,1003.17
2022-10-30T01:09:07.964Z,1003.18
2022-10-30T01:19:15.302Z,1003.17
2022-10-30T01:29:22.827Z,1003.10
2022-10-30T01:39:28.875Z,1002.90
2022-10-30T01:49:36.577Z,1002.95
2022-10-30T01:59:41.995Z,1002.81
2022-10-30T02:09:50.046Z,1002.73
2022-10-30T02:19:55.764Z,1002.75
2022-10-30T02:30:03.246Z,1002.70
2022-10-30T02:40:09.163Z,1002.75
2022-10-30T02:50:16.788Z,1002.75
2022-10-30T03:00:22.407Z,1002.63
2022-10-30T03:10:30.160Z,1002.59
2022-10-30T03:20:35.951Z,1002.60
2022-10-30T03:30:43.651Z,1002.49
2022-10-30T03:40:49.486Z,1002.53
2022-10-30T03:50:56.973Z,1002.52
2022-10-30T04:01:02.806Z,1002.45
2022-10-30T04:11:10.602Z,1002.48
2022-10-30T04:21:16.489Z,1002.38
2022-10-30T04:31:24.509Z,1002.31
2022-10-30T04:41:30.103Z,1002.29
2022-10-30T04:51:37.794Z,1002.33
2022-10-30T05:01:43.629Z,1002.43
2022-10-30T05:11:53.846Z,1002.38
2022-10-30T05:22:02.012Z,1002.40
2022-10-30T05:32:09.618Z,1002.36
2022-10-30T05:42:15.448Z,1002.28
2022-10-30T05:52:23.145Z,1002.33
2022-10-30T06:02:28.891Z,1002.36
2022-10-30T06:12:34.657Z,1002.41
2022-10-30T06:22:40.160Z,1002.28
2022-10-30T06:32:45.472Z,1002.41
2022-10-30T06:42:51.442Z,1002.46
2022-10-30T06:52:57.464Z,1002.56
2022-10-30T07:03:03.623Z,1002.50
2022-10-30T07:13:11.606Z,1002.48
2022-10-30T07:23:18.241Z,1002.55
2022-10-30T07:33:24.511Z,1002.61
2022-10-30T07:43:30.659Z,1002.77
2022-10-30T07:53:38.052Z,1002.79
2022-10-30T08:03:44.260Z,1002.90
2022-10-30T08:13:51.749Z,1003.03
2022-10-30T08:23:57.674Z,1002.97
2022-10-30T08:34:04.978Z,1003.00
2022-10-30T08:44:12.006Z,1002.95
2022-10-30T08:54:17.847Z,1002.93
2022-10-30T09:04:23.614Z,1002.90
2022-10-30T09:14:29.598Z,1002.84
2022-10-30T09:24:35.502Z,1002.85
2022-10-30T09:34:41.140Z,1002.87
2022-10-30T09:44:52.459Z,1002.95
2022-10-30T09:54:58.199Z,1003.00
2022-10-30T10:05:03.881Z,1003.00
2022-10-30T10:15:10.071Z,1002.99
2022-10-30T10:25:17.358Z,1002.90
2022-10-30T10:35:23.103Z,1002.80
2022-10-30T10:45:29.248Z,1002.67
2022-10-30T10:55:35.404Z,1002.56
2022-10-30T11:05:41.345Z,1002.46
2022-10-30T11:15:47.240Z,1002.36
2022-10-30T11:25:53.060Z,1002.25
2022-10-30T11:35:59.243Z,1002.19
2022-10-30T11:46:05.111Z,1002.15
2022-10-30T11:56:10.780Z,1002.10
2022-10-30T12:06:16.783Z,1002.08
2022-10-30T12:16:22.208Z,1001.91
2022-10-30T12:26:28.093Z,1001.80
2022-10-30T12:36:34.173Z,1001.74
2022-10-30T12:46:40.272Z,1001.67
2022-10-30T12:56:46.525Z,1001.72
2022-10-30T13:06:52.711Z,1001.68
2022-10-30T13:16:58.802Z,1001.67
2022-10-30T13:27:06.172Z,1001.55
2022-10-30T13:37:13.709Z,1001.55
2022-10-30T13:47:22.177Z,1001.44
2022-10-30T13:57:28.478Z,1001.50
2022-10-30T14:07:36.740Z,1001.47
2022-10-30T14:17:42.555Z,1001.48
2022-10-30T14:27:50.053Z,1001.46
2022-10-30T14:37:56.078Z,1001.45
2022-10-30T14:48:03.726Z,1001.61
2022-10-30T14:58:09.297Z,1001.54
2022-10-30T15:08:16.825Z,1001.51
2022-10-30T15:18:25.608Z,1001.55
2022-10-30T15:28:35.472Z,1001.60
2022-10-30T15:38:41.891Z,1001.74
2022-10-30T15:48:49.567Z,1001.71
2022-10-30T15:58:55.234Z,1001.77
2022-10-30T16:09:02.496Z,1001.82
2022-10-30T16:19:09.519Z,1001.80
2022-10-30T16:29:16.669Z,1001.80
2022-10-30T16:39:23.506Z,1001.91
2022-10-30T16:49:30.453Z,1001.96
2022-10-30T16:59:37.663Z,1002.12
2022-10-30T17:09:44.818Z,1002.20
2022-10-30T17:19:51.756Z,1002.19
2022-10-30T17:29:59.133Z,1002.19
2022-10-30T17:40:06.177Z,1002.27
2022-10-30T17:50:13.941Z,1002.39
2022-10-30T18:00:19.818Z,1002.46
2022-10-30T18:10:25.491Z,1002.47
2022-10-30T18:20:31.979Z,1002.57
2022-10-30T18:30:39.080Z,1002.57
2022-10-30T18:40:45.820Z,1002.63
2022-10-30T18:50:52.741Z,1002.65
2022-10-30T19:01:11.872Z,1002.70
2022-10-30T19:11:12.317Z,1002.73
2022-10-30T19:21:19.019Z,1002.78
2022-10-30T19:31:25.003Z,1002.83
2022-10-30T19:41:32.187Z,1002.90
2022-10-30T19:51:39.231Z,1002.95
2022-10-30T20:01:45.070Z,1003.02
2022-10-30T20:11:50.645Z,1003.09
2022-10-30T20:21:56.512Z,1003.15
2022-10-30T20:32:02.455Z,1003.21
2022-10-30T20:42:07.792Z,1003.36
2022-10-30T20:52:13.607Z,1003.43
2022-10-30T21:02:19.428Z,1003.47
2022-10-30T21:12:25.529Z,1003.53
2022-10-30T21:22:31.252Z,1003.52
2022-10-30T21:32:37.223Z,1003.59
2022-10-30T21:42:42.831Z,1003.50
2022-10-30T21:52:48.230Z,1003.50
2022-10-30T22:02:53.883Z,1003.49
2022-10-30T22:12:59.501Z,1003.45
2022-10-30T22:23:05.193Z,1003.54
2022-10-30T22:33:10.857Z,1003.57
2022-10-30T22:53:21.838Z,1003.66
2022-10-30T23:03:27.293Z,1003.76
2022-10-30T23:13:33.036Z,1003.83
2022-10-30T23:23:39.054Z,1003.86
2022-10-30T23:33:44.592Z,1003.97
2022-10-30T23:43:50.152Z,1003.99
2022-10-30T23:53:56.469Z,1004.08
